createdAt,value
2023-05-11T00:00:43.800Z,98.13
2023-05-11T00:01:43.787Z,98.18
2023-05-11T00:02:43.879Z,99.29
2023-05-11T00:03:43.812Z,98.89
2023-05-11T00:04:43.898Z,99.25
2023-05-11T00:05:43.742Z,98.79
2023-05-11T00:06:43.739Z,99.04
2023-05-11T00:07:43.743Z,98.89
2023-05-11T00:08:43.749Z,99.15
2023-05-11T00:09:43.734Z,98.33
2023-05-11T00:10:43.695Z,97.82
2023-05-11T00:11:43.688Z,97.41
2023-05-11T00:12:43.679Z,97.82
2023-05-11T00:13:43.670Z,97.72
2023-05-11T00:14:43.663Z,97.62
2023-05-11T00:15:43.646Z,97.57
2023-05-11T00:16:43.635Z,97.72
2023-05-11T00:17:43.625Z,97.82
2023-05-11T00:18:43.679Z,98.02
2023-05-11T00:19:43.615Z,98.64
2023-05-11T00:20:43.594Z,98.74
2023-05-11T00:21:44.597Z,98.23
2023-05-11T00:22:44.959Z,97.62
2023-05-11T00:23:44.581Z,97.72
2023-05-11T00:24:43.557Z,97.52
2023-05-11T00:25:43.545Z,96.19
2023-05-11T00:26:43.558Z,96.25
2023-05-11T00:27:43.547Z,96.35
2023-05-11T00:28:43.529Z,96.45
2023-05-11T00:29:43.495Z,96.86
2023-05-11T00:30:43.509Z,96.35
2023-05-11T00:31:43.494Z,96.25
2023-05-11T00:32:43.515Z,96.30
2023-05-11T00:33:43.470Z,96.19
2023-05-11T00:34:43.447Z,96.30
2023-05-11T00:35:43.446Z,96.03
2023-05-11T00:36:43.425Z,96.50
2023-05-11T00:37:43.441Z,96.30
2023-05-11T00:38:43.433Z,95.98
2023-05-11T00:39:43.429Z,95.98
2023-05-11T00:40:43.409Z,96.50
2023-05-11T00:41:43.394Z,96.70
2023-05-11T00:42:43.387Z,96.60
2023-05-11T00:43:43.364Z,96.70
2023-05-11T00:44:43.383Z,95.48
2023-05-11T00:45:43.338Z,95.98
2023-05-11T00:46:43.402Z,96.09
2023-05-11T00:47:43.339Z,95.78
2023-05-11T00:48:43.327Z,94.26
2023-05-11T00:49:43.302Z,93.95
2023-05-11T00:50:43.303Z,94.35
2023-05-11T00:51:43.316Z,94.26
2023-05-11T00:52:43.270Z,94.42
2023-05-11T00:53:43.278Z,94.31
2023-05-11T00:54:43.258Z,93.90
2023-05-11T00:55:43.275Z,94.42
2023-05-11T00:56:43.244Z,94.42
2023-05-11T00:57:43.265Z,94.42
2023-05-11T00:58:43.221Z,95.13
2023-05-11T00:59:43.233Z,95.03
2023-05-11T01:00:43.237Z,95.74
2023-05-11T01:01:43.239Z,95.94
2023-05-11T01:02:43.265Z,95.43
2023-05-11T01:03:43.183Z,95.68
2023-05-11T01:04:43.179Z,95.64
2023-05-11T01:05:43.173Z,95.89
2023-05-11T01:06:43.154Z,96.44
2023-05-11T01:07:43.140Z,96.95
2023-05-11T01:08:43.119Z,96.91
2023-05-11T01:09:43.138Z,97.25
2023-05-11T01:10:43.130Z,97.62
2023-05-11T01:11:43.160Z,97.21
2023-05-11T01:12:43.088Z,96.50
2023-05-11T01:13:43.078Z,96.80
2023-05-11T01:14:43.081Z,96.39
2023-05-11T01:15:43.074Z,96.91
2023-05-11T01:16:43.101Z,97.11
2023-05-11T01:17:43.062Z,96.66
2023-05-11T01:18:43.047Z,97.21
2023-05-11T01:19:43.051Z,97.11
2023-05-11T01:20:43.022Z,97.52
2023-05-11T01:21:43.002Z,97.66
2023-05-11T01:22:43.029Z,97.56
2023-05-11T01:23:43.000Z,97.92
2023-05-11T01:24:42.994Z,97.56
2023-05-11T01:25:43.002Z,97.62
2023-05-11T01:26:42.993Z,97.52
2023-05-11T01:27:42.974Z,97.82
2023-05-11T01:28:42.982Z,97.41
2023-05-11T01:29:42.950Z,97.52
2023-05-11T01:30:42.925Z,97.11
2023-05-11T01:31:42.962Z,96.70
2023-05-11T01:32:42.945Z,96.64
2023-05-11T01:33:42.911Z,97.72
2023-05-11T01:34:42.890Z,97.56
2023-05-11T01:35:42.887Z,97.46
2023-05-11T01:36:42.916Z,98.27
2023-05-11T01:37:42.860Z,98.07
2023-05-11T01:38:43.856Z,97.92
2023-05-11T01:39:42.833Z,97.21
2023-05-11T01:40:42.840Z,95.78
2023-05-11T01:41:42.839Z,95.58
2023-05-11T01:42:42.822Z,95.12
2023-05-11T01:43:42.853Z,95.68
2023-05-11T01:44:42.799Z,96.39
2023-05-11T01:45:42.797Z,96.19
2023-05-11T01:46:42.786Z,97.46
2023-05-11T01:47:42.856Z,97.52
2023-05-11T01:48:42.743Z,97.46
2023-05-11T01:49:42.749Z,97.97
2023-05-11T01:50:42.728Z,97.91
2023-05-11T01:51:42.718Z,98.27
2023-05-11T01:52:42.713Z,98.32
2023-05-11T01:53:42.713Z,98.99
2023-05-11T01:54:42.696Z,98.99
2023-05-11T01:55:42.679Z,99.09
2023-05-11T01:56:42.698Z,98.07
2023-05-11T01:57:42.675Z,97.87
2023-05-11T01:58:42.663Z,98.27
2023-05-11T01:59:42.671Z,98.63
2023-05-11T02:00:42.634Z,98.73
2023-05-11T02:01:42.696Z,99.34
2023-05-11T02:02:42.694Z,99.19
2023-05-11T02:03:42.690Z,99.04
2023-05-11T02:04:42.592Z,98.73
2023-05-11T02:05:42.585Z,99.09
2023-05-11T02:06:42.589Z,99.44
2023-05-11T02:07:42.571Z,99.09
2023-05-11T02:08:42.555Z,99.40
2023-05-11T02:09:42.545Z,98.89
2023-05-11T02:10:42.564Z,99.40
2023-05-11T02:11:42.557Z,99.34
2023-05-11T02:12:42.529Z,99.34
2023-05-11T02:13:42.509Z,99.24
2023-05-11T02:14:42.533Z,99.14
2023-05-11T02:15:42.573Z,99.14
2023-05-11T02:16:42.481Z,99.91
2023-05-11T02:17:42.509Z,99.09
2023-05-11T02:18:42.509Z,98.79
2023-05-11T02:19:42.451Z,99.50
2023-05-11T02:20:42.475Z,98.89
2023-05-11T02:21:42.428Z,98.68
2023-05-11T02:22:43.443Z,98.99
2023-05-11T02:23:42.410Z,98.89
2023-05-11T02:24:42.432Z,99.19
2023-05-11T02:25:42.412Z,98.27
2023-05-11T02:26:42.398Z,98.48
2023-05-11T02:27:42.373Z,98.27
2023-05-11T02:28:42.373Z,98.99
2023-05-11T02:29:42.415Z,98.27
2023-05-11T02:30:42.357Z,99.04
2023-05-11T02:31:42.468Z,98.83
2023-05-11T02:32:42.357Z,99.95
2023-05-11T02:33:42.318Z,99.09
2023-05-11T02:34:42.323Z,99.19
2023-05-11T02:35:42.323Z,99.44
2023-05-11T02:36:42.311Z,99.24
2023-05-11T02:37:42.277Z,99.04
2023-05-11T02:38:42.273Z,99.44
2023-05-11T02:39:42.283Z,99.54
2023-05-11T02:40:42.255Z,99.24
2023-05-11T02:41:43.268Z,99.54
2023-05-11T02:42:42.236Z,99.34
2023-05-11T02:43:42.239Z,99.65
2023-05-11T02:44:42.229Z,99.95
2023-05-11T02:45:42.208Z,99.99
2023-05-11T02:46:42.240Z,99.95
2023-05-11T02:47:43.265Z,99.65
2023-05-11T02:48:42.190Z,99.75
2023-05-11T02:49:42.179Z,99.44
2023-05-11T02:50:42.154Z,99.54
2023-05-11T02:51:42.137Z,99.54
2023-05-11T02:52:42.122Z,99.44
2023-05-11T02:53:42.146Z,99.19
2023-05-11T02:54:42.109Z,98.38
2023-05-11T02:55:42.117Z,97.87
2023-05-11T02:56:42.126Z,97.77
2023-05-11T02:57:42.099Z,97.46
2023-05-11T02:58:42.077Z,97.87
2023-05-11T02:59:42.150Z,96.64
2023-05-11T03:00:42.130Z,96.84
2023-05-11T03:01:42.186Z,95.78
2023-05-11T03:02:42.165Z,95.32
2023-05-11T03:03:42.306Z,95.89
2023-05-11T03:04:42.044Z,95.89
2023-05-11T03:05:42.059Z,95.28
2023-05-11T03:06:42.070Z,95.21
2023-05-11T03:07:42.038Z,95.52
2023-05-11T03:08:41.997Z,95.28
2023-05-11T03:09:41.969Z,95.68
2023-05-11T03:10:42.034Z,95.28
2023-05-11T03:11:41.973Z,95.07
2023-05-11T03:12:41.955Z,95.78
2023-05-11T03:13:41.923Z,95.37
2023-05-11T03:14:41.923Z,95.17
2023-05-11T03:15:41.916Z,94.46
2023-05-11T03:16:41.963Z,94.46
2023-05-11T03:17:41.941Z,94.46
2023-05-11T03:18:41.950Z,94.05
2023-05-11T03:19:41.914Z,94.05
2023-05-11T03:20:41.874Z,94.35
2023-05-11T03:21:41.881Z,94.42
2023-05-11T03:22:41.848Z,94.82
2023-05-11T03:23:41.830Z,95.58
2023-05-11T03:24:41.820Z,95.58
2023-05-11T03:25:41.808Z,95.37
2023-05-11T03:26:41.821Z,95.98
2023-05-11T03:27:41.812Z,96.19
2023-05-11T03:28:41.798Z,95.83
2023-05-11T03:29:41.771Z,96.64
2023-05-11T03:30:41.786Z,96.54
2023-05-11T03:31:41.843Z,95.89
2023-05-11T03:32:41.768Z,95.93
2023-05-11T03:33:41.749Z,95.93
2023-05-11T03:34:41.734Z,95.68
2023-05-11T03:35:41.740Z,95.98
2023-05-11T03:36:41.705Z,95.78
2023-05-11T03:37:41.712Z,95.28
2023-05-11T03:38:41.694Z,95.78
2023-05-11T03:39:41.691Z,95.78
2023-05-11T03:40:41.713Z,96.09
2023-05-11T03:41:41.684Z,95.37
2023-05-11T03:42:41.662Z,95.89
2023-05-11T03:43:41.658Z,96.14
2023-05-11T03:44:41.644Z,96.30
2023-05-11T03:45:41.699Z,96.70
2023-05-11T03:46:41.610Z,96.95
2023-05-11T03:47:41.638Z,96.84
2023-05-11T03:48:41.586Z,97.25
2023-05-11T03:49:41.611Z,97.25
2023-05-11T03:50:41.572Z,97.31
2023-05-11T03:51:41.557Z,97.77
2023-05-11T03:52:41.544Z,97.97
2023-05-11T03:53:41.551Z,98.27
2023-05-11T03:54:41.547Z,97.97
2023-05-11T03:55:41.518Z,98.07
2023-05-11T03:56:41.533Z,99.29
2023-05-11T03:57:41.525Z,98.99
2023-05-11T03:58:41.495Z,99.04
2023-05-11T03:59:41.503Z,99.95
2023-05-11T04:00:41.490Z,99.04
2023-05-11T04:01:41.485Z,99.65
2023-05-11T04:02:41.509Z,99.54
2023-05-11T04:03:41.515Z,99.65
2023-05-11T04:04:41.502Z,99.34
2023-05-11T04:05:42.466Z,99.95
2023-05-11T04:06:41.456Z,99.85
2023-05-11T04:07:41.409Z,99.99
2023-05-11T04:08:41.406Z,99.99
2023-05-11T04:09:41.388Z,99.99
2023-05-11T04:10:41.373Z,99.99
2023-05-11T04:11:41.390Z,99.99
2023-05-11T04:12:41.348Z,99.99
2023-05-11T04:13:41.355Z,99.80
2023-05-11T04:14:41.351Z,99.29
2023-05-11T04:15:41.367Z,99.29
2023-05-11T04:16:41.474Z,98.07
2023-05-11T04:17:41.398Z,97.87
2023-05-11T04:18:41.384Z,97.77
2023-05-11T04:19:41.279Z,97.92
2023-05-11T04:20:41.301Z,97.72
2023-05-11T04:21:41.272Z,97.41
2023-05-11T04:22:41.261Z,97.16
2023-05-11T04:23:41.240Z,96.54
2023-05-11T04:24:41.232Z,96.64
2023-05-11T04:25:41.232Z,96.19
2023-05-11T04:26:41.225Z,96.60
2023-05-11T04:27:41.233Z,96.30
2023-05-11T04:28:41.186Z,95.48
2023-05-11T04:29:41.184Z,95.68
2023-05-11T04:30:41.184Z,95.28
2023-05-11T04:31:41.215Z,95.17
2023-05-11T04:32:41.189Z,95.58
2023-05-11T04:33:41.165Z,95.07
2023-05-11T04:34:41.149Z,95.58
2023-05-11T04:35:41.140Z,94.87
2023-05-11T04:36:41.114Z,94.26
2023-05-11T04:37:41.092Z,94.26
2023-05-11T04:38:41.087Z,94.31
2023-05-11T04:39:41.077Z,94.87
2023-05-11T04:40:41.064Z,95.74
2023-05-11T04:41:41.080Z,95.68
2023-05-11T04:42:41.277Z,96.09
2023-05-11T04:43:41.053Z,96.60
2023-05-11T04:44:41.048Z,96.39
2023-05-11T04:45:41.014Z,97.82
2023-05-11T04:46:41.053Z,97.41
2023-05-11T04:47:41.001Z,97.82
2023-05-11T04:48:41.004Z,96.80
2023-05-11T04:49:40.976Z,96.39
2023-05-11T04:50:40.969Z,96.60
2023-05-11T04:51:40.961Z,96.60
2023-05-11T04:52:40.942Z,96.39
2023-05-11T04:53:42.342Z,96.39
2023-05-11T04:54:40.927Z,96.80
2023-05-11T04:55:40.913Z,96.39
2023-05-11T04:56:40.947Z,96.70
2023-05-11T04:57:40.886Z,96.91
2023-05-11T04:58:41.881Z,97.11
2023-05-11T04:59:40.882Z,96.60
2023-05-11T05:00:40.968Z,96.39
2023-05-11T05:01:40.902Z,96.30
2023-05-11T05:02:40.889Z,96.09
2023-05-11T05:03:40.917Z,95.89
2023-05-11T05:04:40.840Z,95.48
2023-05-11T05:05:40.873Z,95.84
2023-05-11T05:06:40.811Z,94.31
2023-05-11T05:07:40.824Z,94.01
2023-05-11T05:08:40.791Z,94.31
2023-05-11T05:09:42.430Z,94.42
2023-05-11T05:10:40.802Z,94.31
2023-05-11T05:11:40.785Z,95.53
2023-05-11T05:12:40.756Z,95.39
2023-05-11T05:13:40.765Z,95.33
2023-05-11T05:14:40.762Z,95.18
2023-05-11T05:15:40.753Z,94.78
2023-05-11T05:16:40.768Z,94.37
2023-05-11T05:17:40.795Z,94.17
2023-05-11T05:18:40.799Z,94.47
2023-05-11T05:19:40.715Z,94.12
2023-05-11T05:20:40.693Z,93.76
2023-05-11T05:21:40.710Z,94.53
2023-05-11T05:22:40.675Z,94.93
2023-05-11T05:23:40.667Z,93.92
2023-05-11T05:24:40.666Z,93.45
2023-05-11T05:25:40.651Z,93.50
2023-05-11T05:26:40.628Z,94.07
2023-05-11T05:27:40.614Z,94.47
2023-05-11T05:28:40.837Z,94.57
2023-05-11T05:29:40.609Z,95.24
2023-05-11T05:30:40.646Z,94.32
2023-05-11T05:31:40.599Z,95.14
2023-05-11T05:32:40.610Z,94.23
2023-05-11T05:33:40.577Z,93.96
2023-05-11T05:34:40.558Z,95.14
2023-05-11T05:35:40.541Z,95.34
2023-05-11T05:36:40.553Z,95.34
2023-05-11T05:37:40.537Z,95.24
2023-05-11T05:38:40.536Z,95.14
2023-05-11T05:39:40.505Z,94.57
2023-05-11T05:40:40.499Z,94.78
2023-05-11T05:41:40.496Z,94.98
2023-05-11T05:42:40.495Z,95.69
2023-05-11T05:43:40.486Z,95.79
2023-05-11T05:44:40.472Z,95.14
2023-05-11T05:45:40.452Z,94.78
2023-05-11T05:46:40.552Z,94.88
2023-05-11T05:47:40.450Z,95.69
2023-05-11T05:48:40.411Z,96.26
2023-05-11T05:49:40.407Z,94.73
2023-05-11T05:50:40.394Z,94.93
2023-05-11T05:51:40.395Z,94.12
2023-05-11T05:52:40.391Z,94.53
2023-05-11T05:53:40.352Z,94.68
2023-05-11T05:54:40.359Z,94.73
2023-05-11T05:55:40.403Z,95.04
2023-05-11T05:56:40.326Z,95.04
2023-05-11T05:57:40.353Z,95.14
2023-05-11T05:58:40.319Z,94.12
2023-05-11T05:59:52.676Z,95.65
2023-05-11T06:00:40.330Z,94.93
2023-05-11T06:01:40.327Z,94.63
2023-05-11T06:02:40.399Z,94.02
2023-05-11T06:03:40.496Z,94.12
2023-05-11T06:04:40.341Z,94.32
2023-05-11T06:05:40.279Z,94.37
2023-05-11T06:06:40.292Z,94.17
2023-05-11T06:07:40.267Z,94.84
2023-05-11T06:08:40.266Z,96.36
2023-05-11T06:09:40.242Z,95.54
2023-05-11T06:10:40.236Z,94.93
2023-05-11T06:11:40.243Z,95.04
2023-05-11T06:12:40.215Z,94.23
2023-05-11T06:13:40.204Z,94.63
2023-05-11T06:14:40.182Z,94.69
2023-05-11T06:15:43.031Z,95.24
2023-05-11T06:16:41.258Z,94.59
2023-05-11T06:17:40.164Z,95.09
2023-05-11T06:18:40.154Z,93.37
2023-05-11T06:19:40.125Z,94.08
2023-05-11T06:20:40.122Z,94.79
2023-05-11T06:21:40.115Z,95.30
2023-05-11T06:22:40.092Z,95.20
2023-05-11T06:23:40.069Z,94.18
2023-05-11T06:24:40.071Z,93.32
2023-05-11T06:25:40.069Z,93.12
2023-05-11T06:26:40.033Z,92.41
2023-05-11T06:27:41.036Z,92.21
2023-05-11T06:28:40.028Z,92.71
2023-05-11T06:29:40.028Z,92.71
2023-05-11T06:30:40.010Z,92.30
2023-05-11T06:31:40.015Z,92.41
2023-05-11T06:32:40.010Z,92.36
2023-05-11T06:33:39.980Z,91.55
2023-05-11T06:34:39.982Z,92.22
2023-05-11T06:35:39.954Z,91.61
2023-05-11T06:36:39.965Z,91.82
2023-05-11T06:37:39.951Z,91.56
2023-05-11T06:38:39.942Z,92.32
2023-05-11T06:39:39.939Z,92.28
2023-05-11T06:40:39.923Z,92.12
2023-05-11T06:41:39.899Z,91.67
2023-05-11T06:42:40.889Z,91.00
2023-05-11T06:43:39.917Z,90.80
2023-05-11T06:44:39.954Z,90.96
2023-05-11T06:45:39.894Z,90.90
2023-05-11T06:46:39.855Z,91.10
2023-05-11T06:47:39.927Z,90.86
2023-05-11T06:48:39.849Z,90.55
2023-05-11T06:49:39.830Z,90.96
2023-05-11T06:50:39.844Z,90.45
2023-05-11T06:51:39.807Z,90.96
2023-05-11T06:52:39.800Z,90.66
2023-05-11T06:53:39.792Z,92.07
2023-05-11T06:54:39.768Z,91.97
2023-05-11T06:55:39.768Z,91.83
2023-05-11T06:56:39.761Z,91.26
2023-05-11T06:57:40.056Z,91.97
2023-05-11T06:58:39.750Z,91.97
2023-05-11T06:59:39.737Z,91.67
2023-05-11T07:00:39.704Z,91.71
2023-05-11T07:01:39.777Z,91.77
2023-05-11T07:02:39.770Z,91.16
2023-05-11T07:03:39.697Z,92.07
2023-05-11T07:04:39.749Z,91.97
2023-05-11T07:05:39.666Z,92.24
2023-05-11T07:06:39.671Z,92.07
2023-05-11T07:07:39.683Z,92.28
2023-05-11T07:08:39.650Z,92.84
2023-05-11T07:09:41.907Z,91.16
2023-05-11T07:10:39.620Z,92.07
2023-05-11T07:11:39.625Z,92.02
2023-05-11T07:12:39.654Z,91.91
2023-05-11T07:13:39.601Z,92.93
2023-05-11T07:14:39.591Z,92.48
2023-05-11T07:15:39.582Z,92.89
2023-05-11T07:16:39.590Z,93.24
2023-05-11T07:17:39.681Z,92.79
2023-05-11T07:18:39.611Z,92.89
2023-05-11T07:19:39.539Z,92.07
2023-05-11T10:41:28.880Z,81.35
2023-05-11T10:42:28.869Z,82.86
2023-05-11T10:43:28.888Z,82.35
2023-05-11T10:44:28.834Z,82.51
2023-05-11T10:45:28.847Z,82.51
2023-05-11T10:46:30.431Z,83.22
2023-05-11T10:47:28.849Z,82.82
2023-05-11T10:48:28.820Z,82.71
2023-05-11T10:49:28.789Z,81.65
2023-05-11T10:50:28.779Z,80.74
2023-05-11T10:51:28.772Z,80.64
2023-05-11T10:52:29.455Z,81.41
2023-05-11T10:53:28.777Z,82.71
2023-05-11T10:54:28.731Z,81.24
2023-05-11T10:55:28.726Z,81.65
2023-05-11T10:56:28.707Z,81.95
2023-05-11T10:57:28.740Z,81.85
2023-05-11T10:58:28.683Z,81.91
2023-05-11T10:59:28.677Z,81.71
2023-05-11T11:00:28.688Z,80.04
2023-05-11T11:01:28.687Z,79.03
2023-05-11T11:02:28.689Z,83.10
2023-05-11T11:03:28.649Z,83.30
2023-05-11T11:04:29.755Z,84.51
2023-05-11T11:05:28.649Z,84.53
2023-05-11T11:06:28.612Z,84.37
2023-05-11T11:07:28.611Z,83.56
2023-05-11T11:08:28.596Z,83.36
2023-05-11T11:09:28.571Z,83.26
2023-05-11T11:10:28.577Z,83.22
2023-05-11T11:11:28.604Z,82.82
2023-05-11T11:12:28.601Z,82.01
2023-05-11T11:13:28.560Z,83.12
2023-05-11T11:14:28.596Z,83.42
2023-05-11T11:15:28.653Z,85.10
2023-05-11T11:16:28.625Z,83.28
2023-05-11T11:59:26.789Z,77.94
2023-05-11T12:00:13.768Z,77.17
2023-05-11T12:03:07.737Z,78.31
2023-05-11T12:03:37.274Z,78.81
2023-05-11T12:04:58.155Z,77.77
2023-05-11T12:05:37.173Z,78.91
2023-05-11T12:06:37.160Z,80.63
2023-05-11T12:07:37.154Z,80.08
2023-05-11T12:10:04.710Z,79.02
2023-05-11T12:11:03.457Z,79.28
2023-05-11T12:12:16.488Z,79.72
2023-05-11T12:29:38.403Z,80.60
2023-05-11T12:29:58.413Z,81.21
2023-05-11T12:31:00.490Z,80.80
2023-05-11T12:32:30.021Z,80.60
2023-05-11T12:36:11.188Z,80.54
2023-05-11T12:36:50.303Z,82.05
2023-05-11T12:37:50.249Z,82.56
2023-05-11T12:38:50.306Z,82.25
2023-05-11T12:39:50.217Z,82.56
2023-05-11T12:46:44.957Z,81.24
2023-05-11T12:47:34.214Z,82.15
2023-05-11T12:48:34.188Z,82.65
2023-05-11T12:52:27.202Z,81.95
2023-05-11T12:53:26.139Z,81.65
2023-05-11T12:54:26.128Z,80.92
2023-05-11T12:55:26.092Z,82.29
2023-05-11T12:56:26.067Z,82.53
2023-05-11T15:52:19.416Z,90.96
2023-05-11T15:53:19.295Z,93.43
2023-05-11T15:54:19.326Z,94.00
2023-05-11T15:55:19.312Z,93.19
2023-05-11T15:56:19.291Z,92.38
2023-05-11T15:57:19.266Z,92.48
2023-05-11T15:58:19.256Z,92.44
2023-05-11T15:59:19.251Z,91.83
2023-05-11T16:00:19.476Z,92.03
2023-05-11T16:01:19.273Z,91.93
2023-05-11T16:02:19.256Z,91.53
2023-05-11T16:03:19.484Z,92.13
2023-05-11T16:04:19.195Z,90.11
2023-05-11T16:05:19.184Z,89.87
2023-05-11T16:06:19.165Z,89.66
2023-05-11T16:07:19.147Z,89.66
2023-05-11T16:08:19.143Z,89.56
2023-05-11T16:09:19.142Z,89.66
2023-05-11T16:10:19.412Z,89.42
2023-05-11T16:11:19.105Z,88.35
2023-05-11T16:12:19.096Z,88.41
2023-05-11T16:13:19.100Z,88.51
2023-05-11T16:14:19.101Z,88.01
2023-05-11T16:15:19.101Z,88.41
2023-05-11T16:16:19.080Z,89.12
2023-05-11T16:17:19.104Z,90.83
2023-05-11T16:18:19.117Z,90.23
2023-05-11T16:19:19.938Z,89.62
2023-05-11T16:20:19.146Z,88.15
2023-05-11T16:21:19.004Z,88.75
2023-05-11T16:22:39.991Z,89.10
2023-05-11T16:23:18.993Z,89.46
2023-05-11T16:24:19.087Z,89.16
2023-05-11T16:25:18.989Z,89.30
2023-05-11T16:26:18.977Z,89.30
2023-05-11T16:27:18.932Z,87.93
2023-05-11T16:28:18.945Z,91.47
2023-05-11T16:29:18.918Z,91.00
2023-05-11T16:30:24.852Z,91.71
2023-05-11T16:31:19.916Z,92.72
2023-05-11T16:32:18.887Z,93.33
2023-05-11T16:33:18.886Z,93.19
2023-05-11T16:34:18.866Z,92.18
2023-05-11T16:35:18.892Z,92.58
2023-05-11T16:36:18.845Z,92.44
2023-05-11T16:37:18.837Z,92.64
2023-05-11T16:38:18.829Z,91.83
2023-05-11T16:39:18.805Z,91.53
2023-05-11T16:40:19.430Z,91.83
2023-05-11T16:41:18.786Z,90.72
2023-05-11T16:42:20.889Z,91.42
2023-05-11T16:43:18.808Z,91.02
2023-05-11T16:44:18.765Z,91.32
2023-05-11T16:45:18.759Z,91.22
2023-05-11T16:46:18.806Z,91.53
2023-05-11T16:47:18.765Z,91.42
2023-05-11T16:48:18.710Z,91.83
2023-05-11T16:49:18.702Z,91.53
2023-05-11T16:50:19.085Z,91.42
2023-05-11T16:51:18.693Z,91.42
2023-05-11T16:52:18.670Z,91.73
2023-05-11T16:53:18.682Z,90.82
2023-05-11T16:54:18.659Z,91.22
2023-05-11T16:55:18.634Z,90.62
2023-05-11T16:56:18.705Z,91.63
2023-05-11T16:57:18.611Z,90.41
2023-05-11T16:58:18.606Z,90.82
2023-05-11T16:59:18.601Z,90.52
2023-05-11T17:00:18.685Z,90.41
2023-05-11T17:01:18.642Z,91.32
2023-05-11T17:02:18.567Z,91.63
2023-05-11T17:03:18.716Z,89.91
2023-05-11T17:04:21.600Z,91.57
2023-05-11T17:05:26.209Z,92.28
2023-05-11T17:06:20.700Z,91.87
2023-05-11T17:07:18.630Z,92.22
2023-05-11T17:08:18.517Z,92.79
2023-05-11T17:18:18.628Z,91.77
2023-05-11T17:18:34.897Z,92.38
2023-05-11T17:19:34.860Z,91.71
2023-05-11T17:21:17.513Z,91.82
2023-05-11T17:21:34.827Z,92.83
2023-05-11T17:22:34.809Z,92.67
2023-05-11T17:23:34.781Z,93.18
2023-05-11T17:24:34.869Z,92.57
2023-05-11T17:25:34.765Z,93.58
2023-05-11T17:26:46.382Z,93.78
2023-05-11T17:27:35.738Z,93.68
2023-05-11T17:28:34.771Z,93.54
2023-05-11T17:29:34.754Z,92.93
2023-05-11T17:30:47.322Z,92.42
2023-05-11T17:31:35.864Z,92.72
2023-05-11T17:32:35.076Z,92.42
2023-05-11T17:33:34.827Z,92.72
2023-05-11T17:34:34.747Z,92.32
2023-05-11T17:35:34.656Z,92.52
2023-05-11T17:36:34.647Z,92.22
2023-05-11T17:37:34.644Z,92.63
2023-05-11T17:38:34.651Z,92.83
2023-05-11T17:39:34.637Z,93.33
2023-05-11T17:40:34.610Z,92.72
2023-05-11T17:41:34.596Z,93.23
2023-05-11T17:42:34.597Z,92.77
2023-05-11T17:43:34.646Z,92.97
2023-05-11T17:44:34.585Z,93.58
2023-05-11T17:45:34.582Z,93.48
2023-05-11T17:46:34.795Z,93.88
2023-05-11T17:47:34.645Z,93.52
2023-05-11T17:48:34.533Z,94.74
2023-05-11T17:49:34.531Z,94.84
2023-05-11T17:50:34.543Z,95.04
2023-05-11T17:51:34.538Z,96.26
2023-05-11T17:52:34.522Z,94.54
2023-05-11T17:53:34.468Z,94.84
2023-05-11T17:54:34.443Z,94.74
2023-05-11T17:55:34.455Z,94.84
2023-05-11T17:56:34.424Z,94.84
2023-05-11T17:57:34.449Z,94.94
2023-05-11T17:58:34.424Z,94.43
2023-05-11T17:59:34.439Z,94.94
2023-05-11T18:00:34.470Z,95.79
2023-05-11T18:01:34.435Z,96.06
2023-05-11T18:02:34.525Z,96.15
2023-05-11T18:03:34.442Z,96.36
2023-05-11T18:04:34.343Z,97.11
2023-05-11T18:05:47.486Z,96.91
2023-05-11T18:06:35.312Z,97.11
2023-05-11T18:07:34.323Z,97.36
2023-05-11T18:08:34.337Z,97.62
2023-05-11T18:09:34.345Z,97.77
2023-05-11T18:10:34.344Z,98.07
2023-05-11T18:11:34.274Z,98.38
2023-05-11T18:12:34.371Z,98.58
2023-05-11T18:13:34.372Z,98.68
2023-05-11T18:14:34.223Z,99.08
2023-05-11T18:15:34.286Z,99.08
2023-05-11T18:16:34.379Z,98.68
2023-05-11T18:17:34.250Z,98.68
2023-05-11T18:18:34.434Z,97.06
2023-05-11T18:19:34.169Z,97.06
2023-05-11T18:20:34.199Z,96.96
2023-05-11T18:21:34.174Z,96.61
2023-05-11T18:22:34.144Z,97.22
2023-05-11T18:23:34.139Z,97.11
2023-05-11T18:24:34.121Z,97.02
2023-05-11T18:25:34.124Z,96.46
2023-05-11T18:26:34.112Z,95.90
2023-05-11T18:27:34.085Z,95.59
2023-05-11T18:28:34.086Z,95.70
2023-05-11T18:29:34.078Z,96.00
2023-05-11T18:30:34.070Z,95.39
2023-05-11T18:31:34.121Z,94.78
2023-05-11T18:32:34.080Z,95.90
2023-05-11T18:33:34.025Z,96.61
2023-05-11T18:34:34.016Z,97.22
2023-05-11T18:35:34.018Z,96.81
2023-05-11T18:36:33.995Z,97.11
2023-05-11T18:37:35.631Z,96.04
2023-05-11T18:38:33.969Z,97.26
2023-05-11T18:39:33.963Z,96.96
2023-05-11T18:40:33.962Z,97.06
2023-05-11T18:41:35.198Z,97.16
2023-05-11T18:42:35.342Z,97.26
2023-05-11T18:43:35.113Z,97.06
2023-05-11T18:44:35.096Z,97.11
2023-05-11T18:45:35.270Z,96.61
2023-05-11T18:46:35.092Z,96.10
2023-05-11T18:47:35.061Z,95.90
2023-05-11T18:48:35.043Z,95.79
2023-05-11T18:49:35.058Z,96.61
2023-05-11T18:50:35.040Z,97.26
2023-05-11T18:51:34.991Z,97.51
2023-05-11T18:52:34.977Z,97.36
2023-05-11T18:53:34.961Z,97.61
2023-05-11T18:54:35.003Z,97.61
2023-05-11T18:55:44.689Z,97.71
2023-05-11T18:56:36.935Z,98.63
2023-05-11T18:57:34.941Z,98.63
2023-05-11T18:58:34.933Z,97.81
2023-05-11T18:59:34.913Z,97.92
2023-05-11T19:00:34.887Z,97.20
2023-05-11T19:01:47.009Z,97.41
2023-05-11T19:02:36.931Z,97.00
2023-05-11T19:03:34.854Z,97.11
2023-05-11T19:04:34.849Z,97.51
2023-05-11T19:05:34.811Z,97.41
2023-05-11T19:06:35.052Z,97.31
2023-05-11T19:07:34.815Z,97.51
2023-05-11T19:08:34.810Z,96.70
2023-05-11T19:09:34.824Z,97.16
2023-05-11T19:10:34.817Z,97.00
2023-05-11T19:11:34.799Z,97.11
2023-05-11T19:12:34.796Z,96.30
2023-05-11T19:13:34.785Z,96.70
2023-05-11T19:14:34.744Z,97.00
2023-05-11T19:15:35.733Z,96.90
2023-05-11T19:16:34.774Z,97.00
2023-05-11T19:17:34.723Z,97.61
2023-05-11T19:18:34.782Z,97.92
2023-05-11T19:19:34.714Z,97.61
2023-05-11T19:20:34.719Z,98.32
2023-05-11T19:21:34.690Z,98.73
2023-05-11T19:22:34.671Z,98.68
2023-05-11T19:23:34.723Z,98.77
2023-05-11T19:24:34.705Z,97.51
2023-05-11T19:25:34.605Z,97.86
2023-05-11T19:26:34.600Z,97.31
2023-05-11T19:27:34.607Z,97.00
2023-05-11T19:28:34.582Z,97.00
2023-05-11T19:29:34.579Z,97.41
2023-05-11T19:30:34.562Z,96.09
2023-05-11T19:31:34.629Z,96.54
2023-05-11T19:32:34.575Z,95.83
2023-05-11T19:33:34.533Z,95.53
2023-05-11T19:34:34.515Z,95.02
2023-05-11T19:35:34.507Z,95.02
2023-05-11T19:36:34.512Z,95.22
2023-05-11T19:37:34.494Z,95.22
2023-05-11T19:38:34.469Z,94.71
2023-05-11T19:39:35.483Z,95.02
2023-05-11T19:40:44.501Z,95.12
2023-05-11T19:41:36.456Z,95.22
2023-05-11T19:42:39.177Z,94.71
2023-05-11T19:43:36.434Z,95.32
2023-05-11T19:44:34.441Z,95.42
2023-05-11T19:45:34.417Z,95.42
2023-05-11T19:46:34.697Z,95.32
2023-05-11T19:47:34.388Z,95.53
2023-05-11T19:48:34.373Z,96.34
2023-05-11T19:49:34.354Z,96.03
2023-05-11T19:50:34.361Z,96.14
2023-05-11T19:51:34.396Z,96.23
2023-05-11T19:52:34.339Z,96.44
2023-05-11T19:53:34.328Z,96.14
2023-05-11T19:54:34.300Z,96.18
2023-05-11T19:55:34.308Z,95.94
2023-05-11T19:56:34.327Z,96.08
2023-05-11T19:57:34.372Z,96.28
2023-05-11T19:58:34.265Z,95.37
2023-05-11T19:59:34.265Z,96.38
2023-05-11T20:00:34.254Z,96.89
2023-05-11T20:01:34.256Z,96.23
2023-05-11T20:02:34.378Z,95.87
2023-05-11T20:03:34.339Z,95.47
2023-05-11T20:04:34.281Z,94.86
2023-05-11T20:05:34.245Z,95.47
2023-05-11T20:06:34.220Z,95.57
2023-05-11T20:07:34.205Z,94.76
2023-05-11T20:08:34.203Z,94.96
2023-05-11T20:09:34.169Z,95.10
2023-05-11T20:10:34.175Z,95.31
2023-05-11T20:11:34.151Z,95.57
2023-05-11T20:12:34.158Z,96.53
2023-05-11T20:13:34.126Z,95.92
2023-05-11T20:14:34.131Z,96.53
2023-05-11T20:15:34.142Z,96.02
2023-05-11T20:16:34.111Z,96.02
2023-05-11T20:17:34.101Z,97.04
2023-05-11T20:18:34.104Z,98.91
2023-05-11T20:19:34.076Z,98.41
2023-05-11T20:20:34.063Z,99.11
2023-05-11T20:21:34.037Z,98.71
2023-05-11T20:22:34.032Z,98.50
2023-05-11T20:23:35.291Z,98.97
2023-05-11T20:24:34.027Z,98.81
2023-05-11T20:25:34.007Z,98.50
2023-05-11T20:26:34.013Z,98.10
2023-05-11T20:27:34.586Z,97.69
2023-05-11T20:28:33.993Z,97.19